Acton, Maine
Current Conditions -  °F | °C
As of 5:35 AM on Wednesday 22 Oct 2014 (Local Time) from KSFM Reporting Station
Overcast Overcast  
Wind Chill: 40°   Ceiling: 500
Heat Index: 46°   Visibility: 10mi
Dew Point: 43°   Wind: 14mph
Humidity: 87%   Direction: 10°N
Pressure: 30.08"   Gusts: NA
Location:  43.53°N, 70.91°W
Report Text: KSFM 220935Z AUTO 01012KT 10SM OVC005 08/06 A3008 RMK AO1 P0001
Loading
Personal Weather Stations






























Interactive Weather Map New forecast layout! Learn more

10-Day Weather Forecast

Advertisements
Track Severe Weather on mobile